Aviation Digital Data Service (ADDS)

Output produced by METARs form (0740 UTC 24 March 2019)
found at http://www.aviationweather.gov/metar/data/
 
KAFO 240735Z AUTO 21004KT 10SM SCT007 M02/M03 A3004 RMK AO2
K46U 240735Z AUTO 00000KT 10SM CLR M02/M02 A3006 RMK A01
KBPI 240653Z AUTO 03005KT 10SM CLR M06/M08 A3005 RMK AO2 SLP175 T10561078 400721083
KBPI 240522Z 2406/2506 VRB05KT P6SM SCT050 BKN080 
     FM241400 03005KT P6SM VCSH SCT020 OVC045 
     FM241700 VRB05KT 4SM -SHRASN OVC017 
     FM242200 31009KT P6SM VCSH SCT018 OVC035
       
KBYG 240653Z AUTO 26003KT 10SM OVC110 04/M01 A2999 RMK AO2 SLP145 T00391011 401330011
KCPR 240653Z AUTO 29006KT 10SM OVC095 04/00 A3002 RMK AO2 SLP153 T00390000 401220011
KCPR 240522Z 2406/2506 23006KT P6SM SCT050 BKN090 
     FM242000 22010KT P6SM VCSH BKN060 
     FM250400 23013KT P6SM SCT060 BKN100
       
KCYS 240653Z AUTO 34003KT 10SM OVC060 04/M03 A3001 RMK AO2 SLP156 T00441033 400560011
KCYS 240520Z 2406/2506 31008KT P6SM BKN060 
     FM240900 29008KT P6SM SCT100 
     FM241800 33008KT P6SM BKN100 
     FM242100 29007KT P6SM VCSH OVC050
       
KCOD 240656Z AUTO 18004KT 10SM FEW070 BKN110 02/M05 A3003 RMK AO2 SLP171 T00221050 401610022 FZRANO
KCOD 240522Z 2406/2506 VRB05KT P6SM BKN080 
     FM241700 03007KT P6SM OVC060 
     FM250300 02008KT P6SM VCSH SCT030 OVC045 AMD LTD TO CLD VIS AND WIND
       
KU68 240735Z AUTO 27004KT 10SM CLR 02/M03 A3000 RMK AO2
KDWX 240710Z AUTO 09005KT 10SM CLR 00/M02 A3010 RMK AO2 T10011024
KDGW 240653Z AUTO 33006KT 10SM OVC060 06/02 A3000 RMK AO2 SLP151 T00560017 400781011
KDUB 240735Z AUTO 29007KT 10SM SCT055 BKN095 M01/M06 A3003 RMK AO2
KEVW 240725Z AUTO 00000KT 3SM -SN BR OVC037 00/M01 A3003 RMK AO2 P0000 T00001011
KEVW 240532Z 2406/2506 16005KT P6SM SCT040 BKN060 
     FM240700 15005KT P6SM VCSH SCT020 BKN040 
     FM240900 20006KT 2SM -SN BR OVC009 
     FM241400 24010KT 5SM -SN BR SCT012 BKN030 
     FM242200 26012KT P6SM VCSH BKN040 
     FM250000 26010KT P6SM SCT040
       
KGCC 240653Z AUTO 23006KT 10SM OVC060 05/03 A2999 RMK AO2 SLP156 T00500033 401280011 $
KGCC 240520Z 2406/2506 VRB05KT P6SM OVC050 
     FM241700 14007KT P6SM VCSH OVC020
       
KW43 240735Z AUTO 21005KT 10SM SCT037 BKN075 OVC120 03/02 A3001 RMK AO2 P0001
KJAC 240656Z AUTO 01005KT 10SM CLR M02/M04 A3005 RMK AO2 SLP199 T10171039 400671033 FZRANO
KJAC 240522Z 2406/2506 VRB05KT P6SM BKN060 
     FM241900 VRB05KT P6SM VCSH BKN025 
     FM242100 17007KT 4SM -SHSNRA OVC020 
     FM250100 19008KT P6SM VCSH SCT020 OVC035 AMD LTD TO CLD VIS AND WIND
       
KEMM 240735Z AUTO 35007KT 10SM CLR M01/M04 A3004 RMK AO2
KLND 240653Z AUTO 26009KT 10SM BKN075 OVC095 05/M04 A3000 RMK AO2 SLP136 T00501039 401441022
KLND 240522Z 2406/2506 VRB04KT P6SM BKN090 
     FM242000 VRB05KT P6SM VCSH BKN060 
     FM250100 25008KT P6SM SCT080
       
KLAR 240653Z AUTO 04007KT 360V070 10SM CLR 00/M05 A3003 RMK AO2 SLP158 T00001050 400391033
KLAR 240520Z 2406/2506 27007KT P6SM BKN070 
     FM240900 24006KT P6SM SCT100 
     FM241400 VRB03KT P6SM BKN100 
     FM242000 31008KT P6SM -SHRASN BKN030 OVC050
       
KECS 240735Z AUTO 32005KT 7SM -DZ SCT031 BKN060 OVC090 02/02 A3001 RMK AO2
K82V 240735Z AUTO 28006KT 10SM OVC070 02/02 A3001 RMK AO2
KPNA 240735Z AUTO 00000KT 10SM SCT065 OVC080 M04/M05 A3006 RMK AO2
KPNA 240522Z 2406/2506 30005KT P6SM SCT050 BKN080 
     FM241500 VRB05KT P6SM VCSH SCT020 OVC045 
     FM242000 VRB05KT 4SM -SHRASN OVC015 
     FM250000 31009KT P6SM VCSH SCT018 OVC030 AMD LTD TO CLD VIS AND WIND
       
KPOY 240735Z AUTO 34010KT 10SM SCT075 02/M05 A3000 RMK AO2
KRWL 240653Z AUTO 25003KT 10SM CLR M01/M03 A3006 RMK AO2 SLP172 T10061028 400611017
KRWL 240520Z 2406/2506 24006KT P6SM SCT120 
     FM241200 22007KT P6SM BKN100 
     FM241700 24012KT P6SM VCSH BKN025 OVC050 
     FM242100 24009KT 5SM -RASN OVC025
       
KRIW 240653Z AUTO 05005KT 10SM CLR 03/M03 A3000 RMK AO2 SLP144 T00281033 401331011
KRIW 240522Z 2406/2506 20007KT P6SM BKN090 
     FM242000 17006KT P6SM VCSH BKN070 
     FM250230 29013KT P6SM SCT070 BKN100
       
KRKS 240654Z AUTO 20006KT 10SM CLR M01/M04 A3005 RMK AO2 SLP175 T10111039 400671028
KRKS 240522Z 2406/2506 23007KT P6SM SCT060 BKN100 
     FM241400 22008KT P6SM VCSH SCT020 OVC035 
     TEMPO 2415/2419 4SM -SHSNRA BKN020 
     FM242000 26016G22KT P6SM VCSH SCT020 BKN050 
     FM250100 25014KT P6SM SCT060
       
KSAA 240735Z AUTO 00000KT 10SM CLR M03/M03 A3007 RMK AO2
KSHR 240653Z AUTO 00000KT 10SM CLR 02/M01 A2999 RMK AO2 SLP161 T00221006 401501017
KSHR 240528Z 2406/2506 29006KT P6SM VCSH OVC120 
     FM242200 04006KT P6SM VCSH SCT025 OVC040
       
KTOR 240653Z AUTO 31004KT 10SM OVC060 05/04 A2999 RMK AO2 RAE29 SLP163 P0000 T00500044 400670022
KEAN 240735Z AUTO 26003KT 10SM SCT055 OVC065 06/02 A3000 RMK AO2 T00590021
KWRL 240653Z AUTO 23007KT 10SM BKN110 06/M02 A2999 RMK AO2 SLP146 T00561017 401721028
KWRL 240522Z 2406/2506 VRB05KT P6SM BKN100 
     FM250400 34008KT P6SM VCSH SCT035 OVC060